sensor_id;sensor_type;location;lat;lon;timestamp;temperature;humidity
64599;SHT31;51008;51.504;11.548;2022-12-24T00:03:10;8.94;97.72
64599;SHT31;51008;51.504;11.548;2022-12-24T00:08:11;8.94;97.57
64599;SHT31;51008;51.504;11.548;2022-12-24T00:13:12;8.90;97.87
64599;SHT31;51008;51.504;11.548;2022-12-24T00:18:13;8.76;98.06
64599;SHT31;51008;51.504;11.548;2022-12-24T00:23:15;8.79;98.25
64599;SHT31;51008;51.504;11.548;2022-12-24T00:28:17;8.80;98.50
64599;SHT31;51008;51.504;11.548;2022-12-24T00:33:18;8.99;98.63
64599;SHT31;51008;51.504;11.548;2022-12-24T00:38:19;9.11;98.78
64599;SHT31;51008;51.504;11.548;2022-12-24T00:43:20;9.17;98.77
64599;SHT31;51008;51.504;11.548;2022-12-24T00:48:21;9.24;98.84
64599;SHT31;51008;51.504;11.548;2022-12-24T00:53:22;9.20;98.82
64599;SHT31;51008;51.504;11.548;2022-12-24T00:58:23;9.08;98.42
64599;SHT31;51008;51.504;11.548;2022-12-24T01:03:25;9.03;98.78
64599;SHT31;51008;51.504;11.548;2022-12-24T01:08:26;9.01;99.36
64599;SHT31;51008;51.504;11.548;2022-12-24T01:13:27;8.96;99.60
64599;SHT31;51008;51.504;11.548;2022-12-24T01:18:28;9.03;99.56
64599;SHT31;51008;51.504;11.548;2022-12-24T01:23:30;9.01;99.59
64599;SHT31;51008;51.504;11.548;2022-12-24T01:28:31;9.03;99.62
64599;SHT31;51008;51.504;11.548;2022-12-24T01:33:33;9.07;99.38
64599;SHT31;51008;51.504;11.548;2022-12-24T01:38:34;9.14;99.30
64599;SHT31;51008;51.504;11.548;2022-12-24T01:43:35;9.08;99.57
64599;SHT31;51008;51.504;11.548;2022-12-24T01:48:42;9.07;99.75
64599;SHT31;51008;51.504;11.548;2022-12-24T01:53:46;9.13;99.70
64599;SHT31;51008;51.504;11.548;2022-12-24T01:58:53;9.10;99.48
64599;SHT31;51008;51.504;11.548;2022-12-24T02:03:55;9.04;99.47
64599;SHT31;51008;51.504;11.548;2022-12-24T02:08:56;9.08;98.91
64599;SHT31;51008;51.504;11.548;2022-12-24T02:13:59;9.07;98.79
64599;SHT31;51008;51.504;11.548;2022-12-24T02:30:10;9.04;98.35
64599;SHT31;51008;51.504;11.548;2022-12-24T02:41:00;9.08;99.13
64599;SHT31;51008;51.504;11.548;2022-12-24T02:46:25;9.08;99.23
64599;SHT31;51008;51.504;11.548;2022-12-24T02:51:30;9.08;99.06
64599;SHT31;51008;51.504;11.548;2022-12-24T02:56:36;9.13;98.34
64599;SHT31;51008;51.504;11.548;2022-12-24T03:07:03;9.18;97.18
64599;SHT31;51008;51.504;11.548;2022-12-24T03:12:13;9.27;96.51
64599;SHT31;51008;51.504;11.548;2022-12-24T03:17:17;9.34;95.79
64599;SHT31;51008;51.504;11.548;2022-12-24T03:22:18;9.35;96.07
64599;SHT31;51008;51.504;11.548;2022-12-24T03:27:20;9.35;95.32
64599;SHT31;51008;51.504;11.548;2022-12-24T03:32:28;9.35;95.26
64599;SHT31;51008;51.504;11.548;2022-12-24T03:37:29;9.34;94.79
64599;SHT31;51008;51.504;11.548;2022-12-24T03:42:30;9.36;94.30
64599;SHT31;51008;51.504;11.548;2022-12-24T03:47:31;9.30;94.41
64599;SHT31;51008;51.504;11.548;2022-12-24T03:52:32;9.28;94.14
64599;SHT31;51008;51.504;11.548;2022-12-24T03:57:33;9.16;94.20
64599;SHT31;51008;51.504;11.548;2022-12-24T04:02:34;9.11;94.57
64599;SHT31;51008;51.504;11.548;2022-12-24T04:07:35;9.11;94.59
64599;SHT31;51008;51.504;11.548;2022-12-24T04:12:36;9.14;94.14
64599;SHT31;51008;51.504;11.548;2022-12-24T04:17:37;9.32;92.26
64599;SHT31;51008;51.504;11.548;2022-12-24T04:22:38;9.23;92.83
64599;SHT31;51008;51.504;11.548;2022-12-24T04:27:39;9.23;92.80
64599;SHT31;51008;51.504;11.548;2022-12-24T04:32:40;9.23;92.55
64599;SHT31;51008;51.504;11.548;2022-12-24T04:37:41;9.11;92.90
64599;SHT31;51008;51.504;11.548;2022-12-24T04:42:42;9.03;92.51
64599;SHT31;51008;51.504;11.548;2022-12-24T04:47:43;8.93;92.54
64599;SHT31;51008;51.504;11.548;2022-12-24T04:52:44;8.76;93.01
64599;SHT31;51008;51.504;11.548;2022-12-24T04:57:45;8.73;92.81
64599;SHT31;51008;51.504;11.548;2022-12-24T05:02:46;8.65;92.63
64599;SHT31;51008;51.504;11.548;2022-12-24T05:07:47;8.58;92.49
64599;SHT31;51008;51.504;11.548;2022-12-24T05:12:48;8.56;91.70
64599;SHT31;51008;51.504;11.548;2022-12-24T05:17:49;8.48;91.67
64599;SHT31;51008;51.504;11.548;2022-12-24T05:22:50;8.47;91.42
64599;SHT31;51008;51.504;11.548;2022-12-24T05:27:51;8.37;91.46
64599;SHT31;51008;51.504;11.548;2022-12-24T05:32:52;8.30;91.30
64599;SHT31;51008;51.504;11.548;2022-12-24T05:37:56;8.28;91.03
64599;SHT31;51008;51.504;11.548;2022-12-24T05:42:57;8.24;91.00
64599;SHT31;51008;51.504;11.548;2022-12-24T05:47:58;8.33;89.95
64599;SHT31;51008;51.504;11.548;2022-12-24T05:52:59;8.24;90.83
64599;SHT31;51008;51.504;11.548;2022-12-24T05:58:00;8.27;90.06
64599;SHT31;51008;51.504;11.548;2022-12-24T06:03:01;8.34;89.10
64599;SHT31;51008;51.504;11.548;2022-12-24T06:08:03;8.38;88.89
64599;SHT31;51008;51.504;11.548;2022-12-24T06:13:04;8.36;88.10
64599;SHT31;51008;51.504;11.548;2022-12-24T06:18:04;8.45;87.27
64599;SHT31;51008;51.504;11.548;2022-12-24T06:23:05;8.49;87.28
64599;SHT31;51008;51.504;11.548;2022-12-24T06:28:06;8.51;86.68
64599;SHT31;51008;51.504;11.548;2022-12-24T06:33:07;8.48;86.45
64599;SHT31;51008;51.504;11.548;2022-12-24T06:38:08;8.36;86.31
64599;SHT31;51008;51.504;11.548;2022-12-24T06:43:10;8.36;86.01
64599;SHT31;51008;51.504;11.548;2022-12-24T06:48:11;8.24;86.35
64599;SHT31;51008;51.504;11.548;2022-12-24T06:53:12;8.21;86.00
64599;SHT31;51008;51.504;11.548;2022-12-24T06:58:13;8.14;85.80
64599;SHT31;51008;51.504;11.548;2022-12-24T07:03:14;7.94;86.92
64599;SHT31;51008;51.504;11.548;2022-12-24T07:08:15;7.81;88.10
64599;SHT31;51008;51.504;11.548;2022-12-24T07:13:17;7.72;88.58
64599;SHT31;51008;51.504;11.548;2022-12-24T07:18:17;7.57;89.46
64599;SHT31;51008;51.504;11.548;2022-12-24T07:23:19;7.50;90.17
64599;SHT31;51008;51.504;11.548;2022-12-24T07:28:20;7.35;90.88
64599;SHT31;51008;51.504;11.548;2022-12-24T07:33:22;7.28;91.63
64599;SHT31;51008;51.504;11.548;2022-12-24T07:38:23;7.24;92.11
64599;SHT31;51008;51.504;11.548;2022-12-24T07:43:25;7.24;92.08
64599;SHT31;51008;51.504;11.548;2022-12-24T07:48:29;7.30;91.74
64599;SHT31;51008;51.504;11.548;2022-12-24T07:53:30;7.54;90.83
64599;SHT31;51008;51.504;11.548;2022-12-24T07:58:31;7.96;88.60
64599;SHT31;51008;51.504;11.548;2022-12-24T08:03:32;8.37;87.72
64599;SHT31;51008;51.504;11.548;2022-12-24T08:08:33;8.71;86.64
64599;SHT31;51008;51.504;11.548;2022-12-24T08:13:34;8.84;86.84
64599;SHT31;51008;51.504;11.548;2022-12-24T08:18:35;8.77;86.09
64599;SHT31;51008;51.504;11.548;2022-12-24T08:23:37;8.54;86.96
64599;SHT31;51008;51.504;11.548;2022-12-24T08:28:38;8.72;87.25
64599;SHT31;51008;51.504;11.548;2022-12-24T08:33:39;9.27;86.14
64599;SHT31;51008;51.504;11.548;2022-12-24T08:38:40;9.69;84.59
64599;SHT31;51008;51.504;11.548;2022-12-24T08:43:41;9.82;83.71
64599;SHT31;51008;51.504;11.548;2022-12-24T08:48:42;9.98;83.00
64599;SHT31;51008;51.504;11.548;2022-12-24T08:53:43;9.66;83.90
64599;SHT31;51008;51.504;11.548;2022-12-24T08:58:43;9.25;84.84
64599;SHT31;51008;51.504;11.548;2022-12-24T09:03:45;9.38;85.23
64599;SHT31;51008;51.504;11.548;2022-12-24T09:08:46;10.03;84.89
64599;SHT31;51008;51.504;11.548;2022-12-24T09:13:47;10.44;82.02
64599;SHT31;51008;51.504;11.548;2022-12-24T09:18:48;10.96;80.77
64599;SHT31;51008;51.504;11.548;2022-12-24T09:23:49;10.70;80.07
64599;SHT31;51008;51.504;11.548;2022-12-24T09:28:51;10.07;82.46
64599;SHT31;51008;51.504;11.548;2022-12-24T09:33:52;9.75;84.39
64599;SHT31;51008;51.504;11.548;2022-12-24T09:38:54;9.39;85.93
64599;SHT31;51008;51.504;11.548;2022-12-24T09:49:24;9.61;86.92
64599;SHT31;51008;51.504;11.548;2022-12-24T09:54:29;9.42;86.87
64599;SHT31;51008;51.504;11.548;2022-12-24T09:59:40;9.34;88.18
64599;SHT31;51008;51.504;11.548;2022-12-24T10:04:42;9.65;87.43
64599;SHT31;51008;51.504;11.548;2022-12-24T10:15:45;9.58;87.41
64599;SHT31;51008;51.504;11.548;2022-12-24T10:21:04;9.72;87.75
64599;SHT31;51008;51.504;11.548;2022-12-24T10:26:22;9.86;87.37
64599;SHT31;51008;51.504;11.548;2022-12-24T10:31:27;9.69;87.85
64599;SHT31;51008;51.504;11.548;2022-12-24T10:36:30;9.61;88.77
64599;SHT31;51008;51.504;11.548;2022-12-24T10:41:34;10.03;88.21
64599;SHT31;51008;51.504;11.548;2022-12-24T10:46:38;10.28;87.42
64599;SHT31;51008;51.504;11.548;2022-12-24T10:51:56;10.45;86.58
64599;SHT31;51008;51.504;11.548;2022-12-24T10:57:01;10.35;87.20
64599;SHT31;51008;51.504;11.548;2022-12-24T11:02:02;10.21;87.96
64599;SHT31;51008;51.504;11.548;2022-12-24T11:07:05;10.11;88.94
64599;SHT31;51008;51.504;11.548;2022-12-24T11:12:16;10.22;88.47
64599;SHT31;51008;51.504;11.548;2022-12-24T11:17:21;10.20;89.05
64599;SHT31;51008;51.504;11.548;2022-12-24T11:22:24;10.28;89.11
64599;SHT31;51008;51.504;11.548;2022-12-24T11:27:37;10.28;89.29
64599;SHT31;51008;51.504;11.548;2022-12-24T11:32:42;10.34;88.69
64599;SHT31;51008;51.504;11.548;2022-12-24T11:37:44;10.41;89.25
64599;SHT31;51008;51.504;11.548;2022-12-24T11:42:45;10.38;89.40
64599;SHT31;51008;51.504;11.548;2022-12-24T11:47:46;10.38;89.70
64599;SHT31;51008;51.504;11.548;2022-12-24T11:52:51;10.35;89.66
64599;SHT31;51008;51.504;11.548;2022-12-24T11:58:05;10.31;89.96
64599;SHT31;51008;51.504;11.548;2022-12-24T12:04:09;10.37;89.79
64599;SHT31;51008;51.504;11.548;2022-12-24T12:08:44;10.38;88.75
64599;SHT31;51008;51.504;11.548;2022-12-24T12:13:46;10.37;89.01
64599;SHT31;51008;51.504;11.548;2022-12-24T12:18:56;10.37;89.03
64599;SHT31;51008;51.504;11.548;2022-12-24T12:24:04;10.27;89.80
64599;SHT31;51008;51.504;11.548;2022-12-24T12:34:38;10.00;92.51
64599;SHT31;51008;51.504;11.548;2022-12-24T12:39:41;9.91;93.18
64599;SHT31;51008;51.504;11.548;2022-12-24T12:55:22;9.82;94.20
64599;SHT31;51008;51.504;11.548;2022-12-24T13:00:28;9.83;94.12
64599;SHT31;51008;51.504;11.548;2022-12-24T13:11:00;9.85;92.13
64599;SHT31;51008;51.504;11.548;2022-12-24T13:16:34;9.82;92.09
64599;SHT31;51008;51.504;11.548;2022-12-24T13:21:43;9.91;91.46
64599;SHT31;51008;51.504;11.548;2022-12-24T13:27:17;9.97;91.16
64599;SHT31;51008;51.504;11.548;2022-12-24T13:58:26;9.87;89.76
64599;SHT31;51008;51.504;11.548;2022-12-24T14:03:32;9.89;88.64
64599;SHT31;51008;51.504;11.548;2022-12-24T14:08:40;9.87;88.42
64599;SHT31;51008;51.504;11.548;2022-12-24T14:24:00;9.82;88.37
64599;SHT31;51008;51.504;11.548;2022-12-24T14:29:15;9.80;87.89
64599;SHT31;51008;51.504;11.548;2022-12-24T14:34:19;9.76;88.13
64599;SHT31;51008;51.504;11.548;2022-12-24T14:39:39;9.72;88.74
64599;SHT31;51008;51.504;11.548;2022-12-24T14:50:44;9.72;88.98
64599;SHT31;51008;51.504;11.548;2022-12-24T14:55:48;9.65;89.18
64599;SHT31;51008;51.504;11.548;2022-12-24T15:00:51;9.59;89.65
64599;SHT31;51008;51.504;11.548;2022-12-24T15:05:55;9.42;89.93
64599;SHT31;51008;51.504;11.548;2022-12-24T15:11:03;9.24;90.07
64599;SHT31;51008;51.504;11.548;2022-12-24T15:16:08;8.96;90.56
64599;SHT31;51008;51.504;11.548;2022-12-24T15:21:16;8.73;91.33
64599;SHT31;51008;51.504;11.548;2022-12-24T15:26:35;8.51;92.14
64599;SHT31;51008;51.504;11.548;2022-12-24T15:31:36;8.34;92.45
64599;SHT31;51008;51.504;11.548;2022-12-24T15:36:38;8.17;92.59
64599;SHT31;51008;51.504;11.548;2022-12-24T15:41:41;8.03;93.32
64599;SHT31;51008;51.504;11.548;2022-12-24T15:46:42;8.00;94.32
64599;SHT31;51008;51.504;11.548;2022-12-24T15:51:43;8.00;94.26
64599;SHT31;51008;51.504;11.548;2022-12-24T15:56:44;7.94;94.40
64599;SHT31;51008;51.504;11.548;2022-12-24T16:01:46;7.94;94.69
64599;SHT31;51008;51.504;11.548;2022-12-24T16:06:57;7.90;94.61
64599;SHT31;51008;51.504;11.548;2022-12-24T16:12:00;7.85;94.92
64599;SHT31;51008;51.504;11.548;2022-12-24T16:17:01;7.76;94.44
64599;SHT31;51008;51.504;11.548;2022-12-24T16:22:02;7.74;95.13
64599;SHT31;51008;51.504;11.548;2022-12-24T16:27:09;7.72;95.16
64599;SHT31;51008;51.504;11.548;2022-12-24T16:32:33;7.75;95.20
64599;SHT31;51008;51.504;11.548;2022-12-24T16:37:34;7.78;95.11
64599;SHT31;51008;51.504;11.548;2022-12-24T16:42:35;7.78;95.00
64599;SHT31;51008;51.504;11.548;2022-12-24T16:47:36;7.72;94.92
64599;SHT31;51008;51.504;11.548;2022-12-24T16:52:37;7.59;94.92
64599;SHT31;51008;51.504;11.548;2022-12-24T16:57:40;7.47;95.07
64599;SHT31;51008;51.504;11.548;2022-12-24T17:02:41;7.35;94.95
64599;SHT31;51008;51.504;11.548;2022-12-24T17:07:42;7.19;95.48
64599;SHT31;51008;51.504;11.548;2022-12-24T17:12:43;7.13;96.04
64599;SHT31;51008;51.504;11.548;2022-12-24T17:17:44;7.14;95.83
64599;SHT31;51008;51.504;11.548;2022-12-24T17:22:45;7.10;95.77
64599;SHT31;51008;51.504;11.548;2022-12-24T17:27:46;7.09;95.88
64599;SHT31;51008;51.504;11.548;2022-12-24T17:32:47;7.07;96.12
64599;SHT31;51008;51.504;11.548;2022-12-24T17:37:48;7.13;96.05
64599;SHT31;51008;51.504;11.548;2022-12-24T17:42:49;7.12;96.08
64599;SHT31;51008;51.504;11.548;2022-12-24T17:47:50;7.10;96.03
64599;SHT31;51008;51.504;11.548;2022-12-24T17:52:51;7.19;96.03
64599;SHT31;51008;51.504;11.548;2022-12-24T17:57:52;7.27;95.79
64599;SHT31;51008;51.504;11.548;2022-12-24T18:02:53;7.24;95.42
64599;SHT31;51008;51.504;11.548;2022-12-24T18:07:54;7.24;95.18
64599;SHT31;51008;51.504;11.548;2022-12-24T18:12:55;7.20;95.36
64599;SHT31;51008;51.504;11.548;2022-12-24T18:17:56;7.13;95.40
64599;SHT31;51008;51.504;11.548;2022-12-24T18:22:57;7.03;95.81
64599;SHT31;51008;51.504;11.548;2022-12-24T18:27:58;7.03;95.91
64599;SHT31;51008;51.504;11.548;2022-12-24T18:32:59;7.00;96.00
64599;SHT31;51008;51.504;11.548;2022-12-24T18:38:00;6.93;95.80
64599;SHT31;51008;51.504;11.548;2022-12-24T18:43:01;6.93;96.07
64599;SHT31;51008;51.504;11.548;2022-12-24T18:48:02;6.96;96.21
64599;SHT31;51008;51.504;11.548;2022-12-24T18:53:04;6.93;96.33
64599;SHT31;51008;51.504;11.548;2022-12-24T18:58:05;6.91;96.20
64599;SHT31;51008;51.504;11.548;2022-12-24T19:03:06;6.79;95.86
64599;SHT31;51008;51.504;11.548;2022-12-24T19:08:07;6.69;95.80
64599;SHT31;51008;51.504;11.548;2022-12-24T19:13:11;6.51;96.17
64599;SHT31;51008;51.504;11.548;2022-12-24T19:18:12;6.36;96.68
64599;SHT31;51008;51.504;11.548;2022-12-24T19:23:14;6.33;96.96
64599;SHT31;51008;51.504;11.548;2022-12-24T19:28:15;6.26;97.32
64599;SHT31;51008;51.504;11.548;2022-12-24T19:33:16;6.29;98.04
64599;SHT31;51008;51.504;11.548;2022-12-24T19:38:17;6.37;97.98
64599;SHT31;51008;51.504;11.548;2022-12-24T19:43:18;6.44;97.99
64599;SHT31;51008;51.504;11.548;2022-12-24T19:48:19;6.45;97.90
64599;SHT31;51008;51.504;11.548;2022-12-24T19:53:20;6.45;97.95
64599;SHT31;51008;51.504;11.548;2022-12-24T19:58:21;6.38;97.86
64599;SHT31;51008;51.504;11.548;2022-12-24T20:03:22;6.30;97.89
64599;SHT31;51008;51.504;11.548;2022-12-24T20:08:23;6.26;97.68
64599;SHT31;51008;51.504;11.548;2022-12-24T20:13:24;6.12;97.94
64599;SHT31;51008;51.504;11.548;2022-12-24T20:18:25;6.02;97.93
64599;SHT31;51008;51.504;11.548;2022-12-24T20:23:26;5.88;97.81
64599;SHT31;51008;51.504;11.548;2022-12-24T20:28:29;5.74;97.62
64599;SHT31;51008;51.504;11.548;2022-12-24T20:33:30;5.65;97.57
64599;SHT31;51008;51.504;11.548;2022-12-24T20:38:31;5.50;97.90
64599;SHT31;51008;51.504;11.548;2022-12-24T20:43:32;5.37;97.99
64599;SHT31;51008;51.504;11.548;2022-12-24T20:48:34;5.19;98.00
64599;SHT31;51008;51.504;11.548;2022-12-24T20:53:35;4.99;98.16
64599;SHT31;51008;51.504;11.548;2022-12-24T20:58:36;4.88;98.27
64599;SHT31;51008;51.504;11.548;2022-12-24T21:03:37;4.75;98.57
64599;SHT31;51008;51.504;11.548;2022-12-24T21:08:38;4.70;99.21
64599;SHT31;51008;51.504;11.548;2022-12-24T21:13:39;4.81;99.35
64599;SHT31;51008;51.504;11.548;2022-12-24T21:18:40;4.87;99.44
64599;SHT31;51008;51.504;11.548;2022-12-24T21:23:41;4.88;99.76
64599;SHT31;51008;51.504;11.548;2022-12-24T21:28:43;4.95;99.72
64599;SHT31;51008;51.504;11.548;2022-12-24T21:33:44;4.98;99.81
64599;SHT31;51008;51.504;11.548;2022-12-24T21:38:45;5.04;99.99
64599;SHT31;51008;51.504;11.548;2022-12-24T21:43:46;5.08;99.97
64599;SHT31;51008;51.504;11.548;2022-12-24T21:48:52;5.04;99.99
64599;SHT31;51008;51.504;11.548;2022-12-24T21:53:54;4.99;99.92
64599;SHT31;51008;51.504;11.548;2022-12-24T21:58:55;5.05;99.99
64599;SHT31;51008;51.504;11.548;2022-12-24T22:03:56;5.09;99.99
64599;SHT31;51008;51.504;11.548;2022-12-24T22:08:57;5.05;99.99
64599;SHT31;51008;51.504;11.548;2022-12-24T22:13:58;5.11;99.99
64599;SHT31;51008;51.504;11.548;2022-12-24T22:18:59;5.11;99.99
64599;SHT31;51008;51.504;11.548;2022-12-24T22:24:01;5.04;99.91
64599;SHT31;51008;51.504;11.548;2022-12-24T22:29:05;4.98;99.89
64599;SHT31;51008;51.504;11.548;2022-12-24T22:34:06;4.88;99.94
64599;SHT31;51008;51.504;11.548;2022-12-24T22:39:07;4.84;99.99
64599;SHT31;51008;51.504;11.548;2022-12-24T22:44:09;4.85;99.99
64599;SHT31;51008;51.504;11.548;2022-12-24T22:49:10;4.95;99.99
64599;SHT31;51008;51.504;11.548;2022-12-24T22:54:11;4.92;99.99
64599;SHT31;51008;51.504;11.548;2022-12-24T22:59:12;4.88;99.99
64599;SHT31;51008;51.504;11.548;2022-12-24T23:04:14;4.75;99.99
64599;SHT31;51008;51.504;11.548;2022-12-24T23:09:15;4.71;99.99
64599;SHT31;51008;51.504;11.548;2022-12-24T23:14:19;4.58;99.99
64599;SHT31;51008;51.504;11.548;2022-12-24T23:19:20;4.42;99.99
64599;SHT31;51008;51.504;11.548;2022-12-24T23:24:21;4.35;99.99
64599;SHT31;51008;51.504;11.548;2022-12-24T23:29:22;4.18;99.99
64599;SHT31;51008;51.504;11.548;2022-12-24T23:34:23;3.99;99.99
64599;SHT31;51008;51.504;11.548;2022-12-24T23:39:24;3.88;99.99
64599;SHT31;51008;51.504;11.548;2022-12-24T23:44:25;3.74;99.95
64599;SHT31;51008;51.504;11.548;2022-12-24T23:49:26;3.73;99.99
64599;SHT31;51008;51.504;11.548;2022-12-24T23:54:27;3.63;99.99
64599;SHT31;51008;51.504;11.548;2022-12-24T23:59:31;3.49;99.94
